KOAK/OAK METAR and TAF weather

Enter ICAO airport designator
Station Type Date Time Source
KOAK METAR 2019/02/18 03:53 UTC NOAA

KOAK 180353Z 00000KT 10SM FEW010 FEW034 FEW060 08/02 A3008 RMK AO2 SLP186 T00780022


Station Type Date Time Source
KOAK Decoded METAR 2019/02/18 03:53 UTC NOAA

METRO OAKLAND INTERNATIONAL AIRPORT , CA, United States (KOAK) 37-43N 122-14W 26M
Feb 17, 2019 - 10:53 PM EST / 2019.02.18 0353 UTC
Wind: Calm:0
Visibility: 10 mile(s):0
Sky conditions: mostly clear
Temperature: 46.0 F (7.8 C)
Dew Point: 36.0 F (2.2 C)
Relative Humidity: 67%
Pressure (altimeter): 30.08 in. Hg (1018 hPa)
ob: KOAK 180353Z 00000KT 10SM FEW010 FEW034 FEW060 08/02 A3008 RMK AO2 SLP186 T00780022
cycle: 4

Station Type Date Time Source
KOAK TAF 2019/02/17 18:24 UTC NOAA

TAF KOAK 171721Z 1718/1824 31011G18KT P6SM VCSH FEW030 BKN050
FM172100 27014G22KT P6SM VCSH FEW030 SCT050
FM180400 32007KT P6SM FEW030 FEW050 SCT150
FM180700 34007KT P6SM FEW030
FM181900 32011G18KT P6SM FEW040


Example: see airport list